sensor_id;sensor_type;location;lat;lon;timestamp;P1;durP1;ratioP1;P2;durP2;ratioP2
69822;SDS011;57119;52.516;13.508;2023-04-19T00:00:09;8.55;;;2.80;;
69822;SDS011;57119;52.516;13.508;2023-04-19T00:02:36;9.80;;;2.67;;
69822;SDS011;57119;52.516;13.508;2023-04-19T00:05:01;8.20;;;2.90;;
69822;SDS011;57119;52.516;13.508;2023-04-19T00:07:26;9.40;;;2.60;;
69822;SDS011;57119;52.516;13.508;2023-04-19T00:09:52;10.17;;;3.93;;
69822;SDS011;57119;52.516;13.508;2023-04-19T00:12:17;9.17;;;2.60;;
69822;SDS011;57119;52.516;13.508;2023-04-19T00:14:43;8.43;;;2.87;;
69822;SDS011;57119;52.516;13.508;2023-04-19T00:17:08;10.27;;;2.50;;
69822;SDS011;57119;52.516;13.508;2023-04-19T00:19:35;9.00;;;2.83;;
69822;SDS011;57119;52.516;13.508;2023-04-19T00:22:01;8.17;;;2.57;;
69822;SDS011;57119;52.516;13.508;2023-04-19T00:24:26;7.73;;;2.43;;
69822;SDS011;57119;52.516;13.508;2023-04-19T00:26:52;7.40;;;2.65;;
69822;SDS011;57119;52.516;13.508;2023-04-19T00:29:17;8.73;;;2.27;;
69822;SDS011;57119;52.516;13.508;2023-04-19T00:31:43;7.07;;;2.70;;
69822;SDS011;57119;52.516;13.508;2023-04-19T00:34:08;5.63;;;2.13;;
69822;SDS011;57119;52.516;13.508;2023-04-19T00:36:33;9.27;;;2.10;;
69822;SDS011;57119;52.516;13.508;2023-04-19T00:38:59;7.85;;;2.47;;
69822;SDS011;57119;52.516;13.508;2023-04-19T00:41:24;7.30;;;2.33;;
69822;SDS011;57119;52.516;13.508;2023-04-19T00:43:50;6.90;;;2.03;;
69822;SDS011;57119;52.516;13.508;2023-04-19T00:46:15;6.37;;;2.07;;
69822;SDS011;57119;52.516;13.508;2023-04-19T00:48:40;5.23;;;2.10;;
69822;SDS011;57119;52.516;13.508;2023-04-19T00:51:06;8.70;;;2.63;;
69822;SDS011;57119;52.516;13.508;2023-04-19T00:53:34;6.30;;;1.70;;
69822;SDS011;57119;52.516;13.508;2023-04-19T00:55:59;6.50;;;2.30;;
69822;SDS011;57119;52.516;13.508;2023-04-19T00:58:28;8.48;;;2.33;;
69822;SDS011;57119;52.516;13.508;2023-04-19T01:00:55;7.68;;;2.00;;
69822;SDS011;57119;52.516;13.508;2023-04-19T01:03:21;11.80;;;2.70;;
69822;SDS011;57119;52.516;13.508;2023-04-19T01:05:46;6.67;;;2.00;;
69822;SDS011;57119;52.516;13.508;2023-04-19T01:08:12;6.43;;;2.50;;
69822;SDS011;57119;52.516;13.508;2023-04-19T01:10:38;7.40;;;3.17;;
69822;SDS011;57119;52.516;13.508;2023-04-19T01:13:03;7.53;;;2.20;;
69822;SDS011;57119;52.516;13.508;2023-04-19T01:15:29;10.07;;;2.83;;
69822;SDS011;57119;52.516;13.508;2023-04-19T01:17:55;6.87;;;1.90;;
69822;SDS011;57119;52.516;13.508;2023-04-19T01:20:21;5.90;;;2.15;;
69822;SDS011;57119;52.516;13.508;2023-04-19T01:22:47;6.70;;;2.70;;
69822;SDS011;57119;52.516;13.508;2023-04-19T01:25:12;7.30;;;2.00;;
69822;SDS011;57119;52.516;13.508;2023-04-19T01:27:37;6.33;;;1.93;;
69822;SDS011;57119;52.516;13.508;2023-04-19T01:30:03;6.28;;;1.75;;
69822;SDS011;57119;52.516;13.508;2023-04-19T01:32:29;8.90;;;2.47;;
69822;SDS011;57119;52.516;13.508;2023-04-19T01:34:54;7.47;;;2.17;;
69822;SDS011;57119;52.516;13.508;2023-04-19T01:37:19;6.97;;;2.20;;
69822;SDS011;57119;52.516;13.508;2023-04-19T01:39:45;6.80;;;2.30;;
69822;SDS011;57119;52.516;13.508;2023-04-19T01:42:10;7.40;;;2.07;;
69822;SDS011;57119;52.516;13.508;2023-04-19T01:44:35;6.97;;;2.60;;
69822;SDS011;57119;52.516;13.508;2023-04-19T01:47:01;8.43;;;2.07;;
69822;SDS011;57119;52.516;13.508;2023-04-19T01:49:26;7.15;;;2.10;;
69822;SDS011;57119;52.516;13.508;2023-04-19T01:51:52;7.13;;;2.30;;
69822;SDS011;57119;52.516;13.508;2023-04-19T01:54:17;7.57;;;2.40;;
69822;SDS011;57119;52.516;13.508;2023-04-19T01:56:42;7.93;;;2.13;;
69822;SDS011;57119;52.516;13.508;2023-04-19T01:59:08;8.53;;;2.67;;
69822;SDS011;57119;52.516;13.508;2023-04-19T02:01:33;10.07;;;3.17;;
69822;SDS011;57119;52.516;13.508;2023-04-19T02:03:59;11.93;;;2.77;;
69822;SDS011;57119;52.516;13.508;2023-04-19T02:06:25;10.77;;;2.50;;
69822;SDS011;57119;52.516;13.508;2023-04-19T02:08:51;8.90;;;2.63;;
69822;SDS011;57119;52.516;13.508;2023-04-19T02:11:16;7.28;;;1.90;;
69822;SDS011;57119;52.516;13.508;2023-04-19T02:13:42;9.27;;;2.70;;
69822;SDS011;57119;52.516;13.508;2023-04-19T02:16:07;10.63;;;2.83;;
69822;SDS011;57119;52.516;13.508;2023-04-19T02:18:34;7.95;;;2.30;;
69822;SDS011;57119;52.516;13.508;2023-04-19T02:21:04;11.52;;;2.70;;
69822;SDS011;57119;52.516;13.508;2023-04-19T02:23:30;7.10;;;2.30;;
69822;SDS011;57119;52.516;13.508;2023-04-19T02:25:55;5.87;;;1.97;;
69822;SDS011;57119;52.516;13.508;2023-04-19T02:28:20;7.30;;;2.27;;
69822;SDS011;57119;52.516;13.508;2023-04-19T02:30:46;10.70;;;2.23;;
69822;SDS011;57119;52.516;13.508;2023-04-19T02:33:11;7.93;;;2.60;;
69822;SDS011;57119;52.516;13.508;2023-04-19T02:35:37;9.18;;;2.08;;
69822;SDS011;57119;52.516;13.508;2023-04-19T02:38:03;8.07;;;2.67;;
69822;SDS011;57119;52.516;13.508;2023-04-19T02:40:29;7.15;;;2.72;;
69822;SDS011;57119;52.516;13.508;2023-04-19T02:42:54;9.95;;;2.80;;
69822;SDS011;57119;52.516;13.508;2023-04-19T02:45:20;7.23;;;2.70;;
69822;SDS011;57119;52.516;13.508;2023-04-19T02:47:45;6.27;;;2.80;;
69822;SDS011;57119;52.516;13.508;2023-04-19T02:50:11;5.43;;;2.13;;
69822;SDS011;57119;52.516;13.508;2023-04-19T02:52:37;9.63;;;2.85;;
69822;SDS011;57119;52.516;13.508;2023-04-19T02:55:02;7.40;;;2.87;;
69822;SDS011;57119;52.516;13.508;2023-04-19T02:57:28;7.93;;;2.50;;
69822;SDS011;57119;52.516;13.508;2023-04-19T02:59:54;7.05;;;2.15;;
69822;SDS011;57119;52.516;13.508;2023-04-19T03:02:19;7.97;;;2.20;;
69822;SDS011;57119;52.516;13.508;2023-04-19T03:04:45;7.73;;;2.17;;
69822;SDS011;57119;52.516;13.508;2023-04-19T03:07:11;7.25;;;2.10;;
69822;SDS011;57119;52.516;13.508;2023-04-19T03:09:36;9.23;;;2.47;;
69822;SDS011;57119;52.516;13.508;2023-04-19T03:12:02;5.75;;;2.28;;
69822;SDS011;57119;52.516;13.508;2023-04-19T03:14:28;7.30;;;2.20;;
69822;SDS011;57119;52.516;13.508;2023-04-19T03:16:53;5.70;;;1.90;;
69822;SDS011;57119;52.516;13.508;2023-04-19T03:19:19;6.03;;;2.10;;
69822;SDS011;57119;52.516;13.508;2023-04-19T03:21:44;8.10;;;2.70;;
69822;SDS011;57119;52.516;13.508;2023-04-19T03:24:10;7.43;;;2.35;;
69822;SDS011;57119;52.516;13.508;2023-04-19T03:26:36;6.40;;;1.93;;
69822;SDS011;57119;52.516;13.508;2023-04-19T03:29:01;8.57;;;2.00;;
69822;SDS011;57119;52.516;13.508;2023-04-19T03:31:27;10.60;;;2.33;;
69822;SDS011;57119;52.516;13.508;2023-04-19T03:33:52;9.13;;;1.87;;
69822;SDS011;57119;52.516;13.508;2023-04-19T03:36:17;6.97;;;1.80;;
69822;SDS011;57119;52.516;13.508;2023-04-19T03:38:43;9.73;;;2.03;;
69822;SDS011;57119;52.516;13.508;2023-04-19T03:41:18;6.03;;;1.73;;
69822;SDS011;57119;52.516;13.508;2023-04-19T03:43:44;7.93;;;2.15;;
69822;SDS011;57119;52.516;13.508;2023-04-19T03:46:10;7.50;;;2.20;;
69822;SDS011;57119;52.516;13.508;2023-04-19T03:48:35;7.53;;;1.95;;
69822;SDS011;57119;52.516;13.508;2023-04-19T03:51:00;6.10;;;2.20;;
69822;SDS011;57119;52.516;13.508;2023-04-19T03:53:26;8.43;;;2.13;;
69822;SDS011;57119;52.516;13.508;2023-04-19T03:55:51;6.57;;;1.90;;
69822;SDS011;57119;52.516;13.508;2023-04-19T03:58:17;7.43;;;1.60;;
69822;SDS011;57119;52.516;13.508;2023-04-19T04:00:42;6.93;;;1.77;;
69822;SDS011;57119;52.516;13.508;2023-04-19T04:03:07;7.15;;;2.30;;
69822;SDS011;57119;52.516;13.508;2023-04-19T04:05:33;6.07;;;2.10;;
69822;SDS011;57119;52.516;13.508;2023-04-19T04:07:59;6.15;;;1.67;;
69822;SDS011;57119;52.516;13.508;2023-04-19T04:10:24;6.10;;;1.90;;
69822;SDS011;57119;52.516;13.508;2023-04-19T04:12:50;7.23;;;1.70;;
69822;SDS011;57119;52.516;13.508;2023-04-19T04:15:15;6.80;;;2.10;;
69822;SDS011;57119;52.516;13.508;2023-04-19T04:17:41;8.10;;;2.33;;
69822;SDS011;57119;52.516;13.508;2023-04-19T04:20:06;7.27;;;2.17;;
69822;SDS011;57119;52.516;13.508;2023-04-19T04:22:32;7.05;;;2.00;;
69822;SDS011;57119;52.516;13.508;2023-04-19T04:24:58;6.67;;;2.13;;
69822;SDS011;57119;52.516;13.508;2023-04-19T04:27:25;6.60;;;2.25;;
69822;SDS011;57119;52.516;13.508;2023-04-19T04:29:50;7.43;;;2.30;;
69822;SDS011;57119;52.516;13.508;2023-04-19T04:32:16;8.13;;;1.97;;
69822;SDS011;57119;52.516;13.508;2023-04-19T04:34:42;8.02;;;2.65;;
69822;SDS011;57119;52.516;13.508;2023-04-19T04:37:08;5.15;;;1.80;;
69822;SDS011;57119;52.516;13.508;2023-04-19T04:39:34;8.33;;;2.03;;
69822;SDS011;57119;52.516;13.508;2023-04-19T04:42:03;7.07;;;2.30;;
69822;SDS011;57119;52.516;13.508;2023-04-19T04:44:31;9.05;;;2.10;;
69822;SDS011;57119;52.516;13.508;2023-04-19T04:46:58;6.20;;;2.05;;
69822;SDS011;57119;52.516;13.508;2023-04-19T04:49:23;5.77;;;1.73;;
69822;SDS011;57119;52.516;13.508;2023-04-19T04:51:48;6.90;;;1.97;;
69822;SDS011;57119;52.516;13.508;2023-04-19T04:54:14;7.97;;;2.30;;
69822;SDS011;57119;52.516;13.508;2023-04-19T04:56:39;6.73;;;1.90;;
69822;SDS011;57119;52.516;13.508;2023-04-19T04:59:04;7.05;;;1.90;;
69822;SDS011;57119;52.516;13.508;2023-04-19T05:01:31;6.73;;;2.50;;
69822;SDS011;57119;52.516;13.508;2023-04-19T05:03:57;9.73;;;2.50;;
69822;SDS011;57119;52.516;13.508;2023-04-19T05:06:22;5.93;;;2.37;;
69822;SDS011;57119;52.516;13.508;2023-04-19T05:08:47;8.47;;;1.87;;
69822;SDS011;57119;52.516;13.508;2023-04-19T05:11:13;6.17;;;1.77;;
69822;SDS011;57119;52.516;13.508;2023-04-19T05:13:38;6.27;;;1.93;;
69822;SDS011;57119;52.516;13.508;2023-04-19T05:16:03;6.17;;;2.10;;
69822;SDS011;57119;52.516;13.508;2023-04-19T05:18:29;6.47;;;2.28;;
69822;SDS011;57119;52.516;13.508;2023-04-19T05:20:55;8.63;;;2.93;;
69822;SDS011;57119;52.516;13.508;2023-04-19T05:23:21;6.20;;;2.47;;
69822;SDS011;57119;52.516;13.508;2023-04-19T05:25:47;5.87;;;1.80;;
69822;SDS011;57119;52.516;13.508;2023-04-19T05:28:12;7.37;;;2.70;;
69822;SDS011;57119;52.516;13.508;2023-04-19T05:30:37;7.17;;;1.90;;
69822;SDS011;57119;52.516;13.508;2023-04-19T05:33:03;7.17;;;2.20;;
69822;SDS011;57119;52.516;13.508;2023-04-19T05:35:28;8.15;;;2.13;;
69822;SDS011;57119;52.516;13.508;2023-04-19T05:37:54;7.87;;;1.80;;
69822;SDS011;57119;52.516;13.508;2023-04-19T05:40:20;5.70;;;1.60;;
69822;SDS011;57119;52.516;13.508;2023-04-19T05:42:47;9.13;;;2.03;;
69822;SDS011;57119;52.516;13.508;2023-04-19T05:45:14;7.17;;;1.73;;
69822;SDS011;57119;52.516;13.508;2023-04-19T05:47:40;7.82;;;1.67;;
69822;SDS011;57119;52.516;13.508;2023-04-19T05:50:06;7.90;;;1.90;;
69822;SDS011;57119;52.516;13.508;2023-04-19T05:52:32;9.38;;;1.48;;
69822;SDS011;57119;52.516;13.508;2023-04-19T05:54:57;6.20;;;1.90;;
69822;SDS011;57119;52.516;13.508;2023-04-19T05:57:23;4.93;;;1.30;;
69822;SDS011;57119;52.516;13.508;2023-04-19T05:59:48;7.47;;;1.70;;
69822;SDS011;57119;52.516;13.508;2023-04-19T06:02:14;6.37;;;1.93;;
69822;SDS011;57119;52.516;13.508;2023-04-19T06:04:40;6.93;;;1.83;;
69822;SDS011;57119;52.516;13.508;2023-04-19T06:07:05;7.80;;;1.80;;
69822;SDS011;57119;52.516;13.508;2023-04-19T06:09:31;7.72;;;1.70;;
69822;SDS011;57119;52.516;13.508;2023-04-19T06:11:57;10.30;;;1.83;;
69822;SDS011;57119;52.516;13.508;2023-04-19T06:14:22;8.27;;;1.67;;
69822;SDS011;57119;52.516;13.508;2023-04-19T06:16:47;7.90;;;2.33;;
69822;SDS011;57119;52.516;13.508;2023-04-19T06:19:13;7.00;;;1.40;;
69822;SDS011;57119;52.516;13.508;2023-04-19T06:21:38;5.73;;;1.60;;
69822;SDS011;57119;52.516;13.508;2023-04-19T06:24:07;5.10;;;1.30;;
69822;SDS011;57119;52.516;13.508;2023-04-19T06:26:32;7.10;;;1.42;;
69822;SDS011;57119;52.516;13.508;2023-04-19T06:28:58;5.23;;;1.60;;
69822;SDS011;57119;52.516;13.508;2023-04-19T06:31:23;6.50;;;1.63;;
69822;SDS011;57119;52.516;13.508;2023-04-19T06:33:48;4.95;;;1.40;;
69822;SDS011;57119;52.516;13.508;2023-04-19T06:36:14;8.10;;;1.60;;
69822;SDS011;57119;52.516;13.508;2023-04-19T06:38:39;3.73;;;1.23;;
69822;SDS011;57119;52.516;13.508;2023-04-19T06:41:05;5.72;;;1.73;;
69822;SDS011;57119;52.516;13.508;2023-04-19T06:43:31;8.20;;;1.63;;
69822;SDS011;57119;52.516;13.508;2023-04-19T06:45:59;5.28;;;1.50;;
69822;SDS011;57119;52.516;13.508;2023-04-19T06:48:25;5.40;;;1.27;;
69822;SDS011;57119;52.516;13.508;2023-04-19T06:50:51;8.48;;;1.75;;
69822;SDS011;57119;52.516;13.508;2023-04-19T06:53:17;7.30;;;2.10;;
69822;SDS011;57119;52.516;13.508;2023-04-19T06:55:43;8.17;;;1.93;;
69822;SDS011;57119;52.516;13.508;2023-04-19T06:58:08;6.25;;;1.90;;
69822;SDS011;57119;52.516;13.508;2023-04-19T07:00:35;11.20;;;1.90;;
69822;SDS011;57119;52.516;13.508;2023-04-19T07:03:00;6.43;;;1.83;;
69822;SDS011;57119;52.516;13.508;2023-04-19T07:05:26;5.27;;;1.40;;
69822;SDS011;57119;52.516;13.508;2023-04-19T07:07:51;6.88;;;1.60;;
69822;SDS011;57119;52.516;13.508;2023-04-19T07:10:17;5.90;;;1.60;;
69822;SDS011;57119;52.516;13.508;2023-04-19T07:12:42;5.80;;;1.50;;
69822;SDS011;57119;52.516;13.508;2023-04-19T07:15:07;5.27;;;1.60;;
69822;SDS011;57119;52.516;13.508;2023-04-19T07:17:34;11.07;;;2.08;;
69822;SDS011;57119;52.516;13.508;2023-04-19T07:20:00;3.72;;;1.45;;
69822;SDS011;57119;52.516;13.508;2023-04-19T07:22:27;5.15;;;1.77;;
69822;SDS011;57119;52.516;13.508;2023-04-19T07:24:53;6.10;;;1.80;;
69822;SDS011;57119;52.516;13.508;2023-04-19T07:27:18;7.07;;;1.80;;
69822;SDS011;57119;52.516;13.508;2023-04-19T07:29:44;5.47;;;2.03;;
69822;SDS011;57119;52.516;13.508;2023-04-19T07:32:10;5.78;;;1.70;;
69822;SDS011;57119;52.516;13.508;2023-04-19T07:34:37;6.00;;;1.60;;
69822;SDS011;57119;52.516;13.508;2023-04-19T07:37:05;4.68;;;1.60;;
69822;SDS011;57119;52.516;13.508;2023-04-19T07:39:30;6.23;;;1.80;;
69822;SDS011;57119;52.516;13.508;2023-04-19T07:41:56;5.15;;;1.80;;
69822;SDS011;57119;52.516;13.508;2023-04-19T07:44:22;7.97;;;1.90;;
69822;SDS011;57119;52.516;13.508;2023-04-19T07:46:47;5.70;;;1.70;;
69822;SDS011;57119;52.516;13.508;2023-04-19T07:49:12;6.85;;;1.92;;
69822;SDS011;57119;52.516;13.508;2023-04-19T07:51:38;6.27;;;1.93;;
69822;SDS011;57119;52.516;13.508;2023-04-19T07:54:04;8.60;;;2.13;;
69822;SDS011;57119;52.516;13.508;2023-04-19T07:56:32;6.43;;;1.98;;
69822;SDS011;57119;52.516;13.508;2023-04-19T07:58:58;6.20;;;2.30;;
69822;SDS011;57119;52.516;13.508;2023-04-19T08:01:24;7.05;;;2.20;;
69822;SDS011;57119;52.516;13.508;2023-04-19T08:03:50;5.82;;;2.00;;
69822;SDS011;57119;52.516;13.508;2023-04-19T08:06:15;11.47;;;2.43;;
69822;SDS011;57119;52.516;13.508;2023-04-19T08:08:42;5.40;;;2.10;;
69822;SDS011;57119;52.516;13.508;2023-04-19T08:11:07;4.93;;;2.13;;
69822;SDS011;57119;52.516;13.508;2023-04-19T08:13:36;6.97;;;2.00;;
69822;SDS011;57119;52.516;13.508;2023-04-19T08:16:01;6.20;;;2.40;;
69822;SDS011;57119;52.516;13.508;2023-04-19T08:18:27;9.60;;;2.53;;
69822;SDS011;57119;52.516;13.508;2023-04-19T08:20:52;8.93;;;2.45;;
69822;SDS011;57119;52.516;13.508;2023-04-19T08:23:17;7.03;;;2.30;;
69822;SDS011;57119;52.516;13.508;2023-04-19T08:25:43;7.47;;;2.73;;
69822;SDS011;57119;52.516;13.508;2023-04-19T08:28:09;9.90;;;2.50;;
69822;SDS011;57119;52.516;13.508;2023-04-19T08:30:36;7.90;;;2.20;;
69822;SDS011;57119;52.516;13.508;2023-04-19T08:33:01;6.50;;;2.43;;
69822;SDS011;57119;52.516;13.508;2023-04-19T08:35:27;7.23;;;2.20;;
69822;SDS011;57119;52.516;13.508;2023-04-19T08:37:52;6.33;;;2.17;;
69822;SDS011;57119;52.516;13.508;2023-04-19T08:40:18;5.50;;;2.53;;
69822;SDS011;57119;52.516;13.508;2023-04-19T08:42:43;6.30;;;2.13;;
69822;SDS011;57119;52.516;13.508;2023-04-19T08:45:09;6.45;;;2.58;;
69822;SDS011;57119;52.516;13.508;2023-04-19T08:47:37;7.20;;;1.97;;
69822;SDS011;57119;52.516;13.508;2023-04-19T08:50:05;10.73;;;2.35;;
69822;SDS011;57119;52.516;13.508;2023-04-19T08:52:35;6.85;;;2.28;;
69822;SDS011;57119;52.516;13.508;2023-04-19T08:55:08;6.45;;;2.33;;
69822;SDS011;57119;52.516;13.508;2023-04-19T08:57:34;10.15;;;2.45;;
69822;SDS011;57119;52.516;13.508;2023-04-19T09:00:00;7.90;;;3.10;;
69822;SDS011;57119;52.516;13.508;2023-04-19T09:05:25;8.32;;;2.40;;
69822;SDS011;57119;52.516;13.508;2023-04-19T09:07:51;6.30;;;1.93;;
69822;SDS011;57119;52.516;13.508;2023-04-19T09:10:17;7.40;;;2.35;;
69822;SDS011;57119;52.516;13.508;2023-04-19T09:13:00;7.90;;;2.80;;
69822;SDS011;57119;52.516;13.508;2023-04-19T09:15:36;8.63;;;2.33;;
69822;SDS011;57119;52.516;13.508;2023-04-19T09:18:04;8.02;;;2.92;;
69822;SDS011;57119;52.516;13.508;2023-04-19T09:20:41;8.10;;;2.90;;
69822;SDS011;57119;52.516;13.508;2023-04-19T09:23:11;12.18;;;3.50;;
69822;SDS011;57119;52.516;13.508;2023-04-19T09:25:39;7.50;;;2.75;;
69822;SDS011;57119;52.516;13.508;2023-04-19T09:28:11;9.13;;;3.10;;
69822;SDS011;57119;52.516;13.508;2023-04-19T09:30:37;6.95;;;2.60;;
69822;SDS011;57119;52.516;13.508;2023-04-19T09:33:03;7.28;;;2.80;;
69822;SDS011;57119;52.516;13.508;2023-04-19T09:35:42;6.90;;;2.67;;
69822;SDS011;57119;52.516;13.508;2023-04-19T09:38:11;9.38;;;3.42;;
69822;SDS011;57119;52.516;13.508;2023-04-19T09:40:37;6.73;;;3.30;;
69822;SDS011;57119;52.516;13.508;2023-04-19T09:43:03;7.97;;;3.45;;
69822;SDS011;57119;52.516;13.508;2023-04-19T09:45:38;7.10;;;2.90;;
69822;SDS011;57119;52.516;13.508;2023-04-19T09:48:07;9.80;;;3.30;;
69822;SDS011;57119;52.516;13.508;2023-04-19T09:50:34;11.88;;;3.55;;
69822;SDS011;57119;52.516;13.508;2023-04-19T09:53:00;6.13;;;2.60;;
69822;SDS011;57119;52.516;13.508;2023-04-19T09:55:26;7.43;;;3.38;;
69822;SDS011;57119;52.516;13.508;2023-04-19T09:57:52;8.10;;;3.60;;
69822;SDS011;57119;52.516;13.508;2023-04-19T10:00:18;7.83;;;3.20;;
69822;SDS011;57119;52.516;13.508;2023-04-19T10:02:45;8.20;;;3.20;;
69822;SDS011;57119;52.516;13.508;2023-04-19T10:05:18;8.23;;;2.95;;
69822;SDS011;57119;52.516;13.508;2023-04-19T10:07:45;9.30;;;3.58;;
69822;SDS011;57119;52.516;13.508;2023-04-19T10:10:11;8.23;;;3.43;;
69822;SDS011;57119;52.516;13.508;2023-04-19T10:12:41;8.00;;;3.40;;
69822;SDS011;57119;52.516;13.508;2023-04-19T10:15:08;8.18;;;3.10;;
69822;SDS011;57119;52.516;13.508;2023-04-19T10:17:35;7.35;;;3.25;;
69822;SDS011;57119;52.516;13.508;2023-04-19T10:20:03;8.17;;;3.43;;
69822;SDS011;57119;52.516;13.508;2023-04-19T10:22:35;9.32;;;3.42;;
69822;SDS011;57119;52.516;13.508;2023-04-19T10:25:14;8.77;;;4.00;;
69822;SDS011;57119;52.516;13.508;2023-04-19T10:27:40;8.68;;;2.70;;
69822;SDS011;57119;52.516;13.508;2023-04-19T10:30:17;10.00;;;3.53;;
69822;SDS011;57119;52.516;13.508;2023-04-19T10:32:51;8.77;;;3.30;;
69822;SDS011;57119;52.516;13.508;2023-04-19T10:35:21;9.05;;;3.25;;
69822;SDS011;57119;52.516;13.508;2023-04-19T10:38:08;8.25;;;3.80;;
69822;SDS011;57119;52.516;13.508;2023-04-19T10:43:33;9.23;;;3.40;;
69822;SDS011;57119;52.516;13.508;2023-04-19T10:48:34;9.25;;;3.63;;
69822;SDS011;57119;52.516;13.508;2023-04-19T10:53:47;7.88;;;2.67;;
69822;SDS011;57119;52.516;13.508;2023-04-19T10:56:17;7.95;;;3.67;;
69822;SDS011;57119;52.516;13.508;2023-04-19T11:01:36;9.73;;;3.25;;
69822;SDS011;57119;52.516;13.508;2023-04-19T11:06:57;6.50;;;2.60;;
69822;SDS011;57119;52.516;13.508;2023-04-19T11:09:29;10.25;;;3.35;;
69822;SDS011;57119;52.516;13.508;2023-04-19T11:11:57;7.40;;;3.10;;
69822;SDS011;57119;52.516;13.508;2023-04-19T11:14:45;7.85;;;3.55;;
69822;SDS011;57119;52.516;13.508;2023-04-19T11:17:13;8.63;;;2.50;;
69822;SDS011;57119;52.516;13.508;2023-04-19T11:19:44;7.53;;;3.28;;
69822;SDS011;57119;52.516;13.508;2023-04-19T11:22:23;8.40;;;2.90;;
69822;SDS011;57119;52.516;13.508;2023-04-19T11:24:53;7.13;;;2.70;;
69822;SDS011;57119;52.516;13.508;2023-04-19T11:27:20;7.68;;;2.83;;
69822;SDS011;57119;52.516;13.508;2023-04-19T11:29:45;6.83;;;3.03;;
69822;SDS011;57119;52.516;13.508;2023-04-19T11:32:11;11.05;;;3.17;;
69822;SDS011;57119;52.516;13.508;2023-04-19T11:34:37;9.23;;;2.60;;
69822;SDS011;57119;52.516;13.508;2023-04-19T11:37:05;6.07;;;2.20;;
69822;SDS011;57119;52.516;13.508;2023-04-19T11:39:31;7.10;;;2.60;;
69822;SDS011;57119;52.516;13.508;2023-04-19T11:41:56;7.60;;;2.70;;
69822;SDS011;57119;52.516;13.508;2023-04-19T11:44:23;7.93;;;2.55;;
69822;SDS011;57119;52.516;13.508;2023-04-19T11:47:02;7.13;;;2.63;;
69822;SDS011;57119;52.516;13.508;2023-04-19T11:49:29;6.60;;;2.70;;
69822;SDS011;57119;52.516;13.508;2023-04-19T11:51:56;8.32;;;2.38;;
69822;SDS011;57119;52.516;13.508;2023-04-19T11:54:25;11.18;;;2.67;;
69822;SDS011;57119;52.516;13.508;2023-04-19T11:59:27;9.13;;;2.60;;
69822;SDS011;57119;52.516;13.508;2023-04-19T12:01:52;8.95;;;2.53;;
69822;SDS011;57119;52.516;13.508;2023-04-19T12:04:18;9.77;;;2.87;;
69822;SDS011;57119;52.516;13.508;2023-04-19T12:06:57;6.47;;;2.70;;
69822;SDS011;57119;52.516;13.508;2023-04-19T12:09:26;8.07;;;2.25;;
69822;SDS011;57119;52.516;13.508;2023-04-19T12:11:52;9.23;;;3.27;;
69822;SDS011;57119;52.516;13.508;2023-04-19T12:14:18;5.65;;;2.17;;
69822;SDS011;57119;52.516;13.508;2023-04-19T12:17:09;7.25;;;2.40;;
69822;SDS011;57119;52.516;13.508;2023-04-19T12:19:44;9.60;;;2.53;;
69822;SDS011;57119;52.516;13.508;2023-04-19T12:22:17;8.45;;;2.00;;
69822;SDS011;57119;52.516;13.508;2023-04-19T12:24:52;8.18;;;2.92;;
69822;SDS011;57119;52.516;13.508;2023-04-19T12:27:18;6.45;;;2.33;;
69822;SDS011;57119;52.516;13.508;2023-04-19T12:29:47;6.97;;;2.30;;
69822;SDS011;57119;52.516;13.508;2023-04-19T12:32:15;8.17;;;2.77;;
69822;SDS011;57119;52.516;13.508;2023-04-19T12:34:43;9.77;;;2.60;;
69822;SDS011;57119;52.516;13.508;2023-04-19T12:37:12;9.52;;;2.40;;
69822;SDS011;57119;52.516;13.508;2023-04-19T12:39:49;6.00;;;2.30;;
69822;SDS011;57119;52.516;13.508;2023-04-19T12:45:09;9.50;;;2.65;;
69822;SDS011;57119;52.516;13.508;2023-04-19T12:47:46;7.28;;;2.95;;
69822;SDS011;57119;52.516;13.508;2023-04-19T12:50:21;8.95;;;2.90;;
69822;SDS011;57119;52.516;13.508;2023-04-19T12:52:47;9.57;;;3.33;;
69822;SDS011;57119;52.516;13.508;2023-04-19T12:55:13;7.93;;;2.67;;
69822;SDS011;57119;52.516;13.508;2023-04-19T12:57:52;7.65;;;2.83;;
69822;SDS011;57119;52.516;13.508;2023-04-19T13:00:26;6.95;;;3.17;;
69822;SDS011;57119;52.516;13.508;2023-04-19T13:06:00;8.95;;;3.80;;
69822;SDS011;57119;52.516;13.508;2023-04-19T13:08:29;9.07;;;3.90;;
69822;SDS011;57119;52.516;13.508;2023-04-19T13:10:54;8.82;;;3.67;;
69822;SDS011;57119;52.516;13.508;2023-04-19T13:13:28;8.55;;;3.20;;
69822;SDS011;57119;52.516;13.508;2023-04-19T13:16:04;8.57;;;3.40;;
69822;SDS011;57119;52.516;13.508;2023-04-19T13:18:35;8.45;;;3.05;;
69822;SDS011;57119;52.516;13.508;2023-04-19T13:21:09;9.05;;;2.88;;
69822;SDS011;57119;52.516;13.508;2023-04-19T13:23:43;9.93;;;3.10;;
69822;SDS011;57119;52.516;13.508;2023-04-19T13:26:17;8.75;;;2.80;;
69822;SDS011;57119;52.516;13.508;2023-04-19T13:28:46;11.63;;;2.90;;
69822;SDS011;57119;52.516;13.508;2023-04-19T13:31:11;8.63;;;2.90;;
69822;SDS011;57119;52.516;13.508;2023-04-19T13:33:46;8.98;;;2.42;;
69822;SDS011;57119;52.516;13.508;2023-04-19T13:36:15;8.38;;;2.80;;
69822;SDS011;57119;52.516;13.508;2023-04-19T13:38:58;8.40;;;2.85;;
69822;SDS011;57119;52.516;13.508;2023-04-19T13:41:31;8.50;;;3.30;;
69822;SDS011;57119;52.516;13.508;2023-04-19T13:44:00;8.68;;;2.75;;
69822;SDS011;57119;52.516;13.508;2023-04-19T13:46:35;11.60;;;2.50;;
69822;SDS011;57119;52.516;13.508;2023-04-19T13:49:35;11.82;;;2.60;;
69822;SDS011;57119;52.516;13.508;2023-04-19T13:52:03;10.02;;;2.20;;
69822;SDS011;57119;52.516;13.508;2023-04-19T13:54:33;9.07;;;2.40;;
69822;SDS011;57119;52.516;13.508;2023-04-19T13:57:05;6.95;;;2.58;;
69822;SDS011;57119;52.516;13.508;2023-04-19T13:59:34;9.27;;;2.78;;
69822;SDS011;57119;52.516;13.508;2023-04-19T14:02:10;9.25;;;2.60;;
69822;SDS011;57119;52.516;13.508;2023-04-19T14:04:39;6.53;;;2.67;;
69822;SDS011;57119;52.516;13.508;2023-04-19T14:07:09;7.18;;;3.15;;
69822;SDS011;57119;52.516;13.508;2023-04-19T14:09:51;7.47;;;2.88;;
69822;SDS011;57119;52.516;13.508;2023-04-19T14:12:19;7.05;;;2.50;;
69822;SDS011;57119;52.516;13.508;2023-04-19T14:14:47;12.10;;;2.80;;
69822;SDS011;57119;52.516;13.508;2023-04-19T14:17:14;11.60;;;2.70;;
69822;SDS011;57119;52.516;13.508;2023-04-19T14:19:40;6.78;;;2.75;;
69822;SDS011;57119;52.516;13.508;2023-04-19T14:22:05;6.63;;;2.87;;
69822;SDS011;57119;52.516;13.508;2023-04-19T14:24:30;8.03;;;3.03;;
69822;SDS011;57119;52.516;13.508;2023-04-19T14:26:56;7.53;;;2.47;;
69822;SDS011;57119;52.516;13.508;2023-04-19T14:29:22;8.15;;;3.70;;
69822;SDS011;57119;52.516;13.508;2023-04-19T14:31:47;11.77;;;2.80;;
69822;SDS011;57119;52.516;13.508;2023-04-19T14:34:12;7.97;;;2.83;;
69822;SDS011;57119;52.516;13.508;2023-04-19T14:36:38;7.57;;;2.33;;
69822;SDS011;57119;52.516;13.508;2023-04-19T14:39:03;9.20;;;3.15;;
69822;SDS011;57119;52.516;13.508;2023-04-19T14:41:28;9.37;;;3.83;;
69822;SDS011;57119;52.516;13.508;2023-04-19T14:43:54;8.60;;;2.80;;
69822;SDS011;57119;52.516;13.508;2023-04-19T14:46:20;7.80;;;2.95;;
69822;SDS011;57119;52.516;13.508;2023-04-19T14:48:45;8.83;;;2.90;;
69822;SDS011;57119;52.516;13.508;2023-04-19T14:51:10;8.07;;;2.83;;
69822;SDS011;57119;52.516;13.508;2023-04-19T14:53:36;8.67;;;2.97;;
69822;SDS011;57119;52.516;13.508;2023-04-19T14:56:02;9.40;;;2.73;;
69822;SDS011;57119;52.516;13.508;2023-04-19T14:58:28;11.40;;;3.20;;